»·PEaware :: N800DW KASE-KEGE

N800DW :: KASE-KEGE

FLIGHT INFORMATION

Flight Status: Arrived
Operator: Privately registered:
United States
More flights under this callsign
Pilot: Scott L. (17677)
Aircraft: CESSNA 510 CITATION MUSTANG
(C510)
More flights by this aircraft type
Origin: KASE Aspen-Pitkin Co/Sardy
United States
Destination: KEGE Eagle Co Regl
United States
More flights between these airports :: More routes between these airports
Route: +LINDZ9 RLG
File this flight plan on PilotEdge
Remarks:
Altitude:
(Current/Filed)
19,000ft
Speed:
(Current/Filed)
400kts
Departed: 10-Sep-19 09:46 AM
Arrived: 10-Sep-19 10:11 AM
Distance/Time
Traveled:
25nm/0:25
Distance/Time
To Go:
Arrived

Flight Plot

Page will automatically refresh every two minutes.

Flight plan parsing failed; only flown route is shown


Map Options




Map Legend


Flown Route
Filed Route
Departure Airport
Arrival Airport
Navaid (VOR, NDB)
Fix

Horizontal Profiles

Position Reports

Time Latitude Longitude Heading Altitude Ground
Speed
10-Sep-19 09:34 39.223893 -106.867612 329 7838ft 0kts
10-Sep-19 09:35 39.223893 -106.867612 329 7838ft 0kts
10-Sep-19 09:36 39.223893 -106.867612 329 7838ft 0kts
10-Sep-19 09:37 39.223893 -106.867612 329 7838ft 0kts
10-Sep-19 09:38 39.223893 -106.867612 329 7838ft 0kts
10-Sep-19 09:39 39.223893 -106.867612 329 7838ft 0kts
10-Sep-19 09:40 39.223893 -106.867612 329 7838ft 0kts
10-Sep-19 09:41 39.223893 -106.867612 329 7838ft 0kts
10-Sep-19 09:42 39.222336 -106.867183 158 7839ft 22kts
10-Sep-19 09:43 39.216096 -106.864321 158 7839ft 18kts
10-Sep-19 09:44 39.211765 -106.863497 318 7839ft 15kts
10-Sep-19 09:45 39.222139 -106.868378 340 7839ft 123kts
10-Sep-19 09:46 39.270443 -106.886890 321 9527ft 232kts
10-Sep-19 09:47 39.286811 -106.976489 279 11783ft 284kts
10-Sep-19 09:48 39.318964 -107.067739 312 14762ft 292kts
10-Sep-19 09:49 39.377123 -107.140230 328 17733ft 294kts
10-Sep-19 09:50 39.455156 -107.112613 30 19216ft 338kts
10-Sep-19 09:51 39.544961 -107.049928 29 19206ft 386kts
10-Sep-19 09:52 39.642808 -106.985884 13 19160ft 405kts
10-Sep-19 09:53 39.751505 -106.948938 29 19179ft 393kts
10-Sep-19 09:54 39.844759 -106.886964 28 19182ft 365kts
10-Sep-19 09:55 39.934247 -106.827701 28 19185ft 356kts
10-Sep-19 09:56 40.022513 -106.769245 28 19186ft 354kts
10-Sep-19 09:57 40.095674 -106.697689 80 18986ft 301kts
10-Sep-19 09:58 40.050573 -106.642308 168 17012ft 252kts
10-Sep-19 09:59 39.984405 -106.615512 162 14936ft 252kts
10-Sep-19 10:00 39.919554 -106.588019 162 14000ft 235kts
10-Sep-19 10:01 39.857600 -106.561809 162 14000ft 232kts
10-Sep-19 10:02 39.796129 -106.535984 164 13972ft 231kts
10-Sep-19 10:03 39.732169 -106.556600 195 12864ft 237kts
10-Sep-19 10:04 39.684596 -106.600081 271 12194ft 232kts
10-Sep-19 10:05 39.676903 -106.681794 256 10397ft 238kts
10-Sep-19 10:06 39.665082 -106.760095 256 9436ft 215kts
10-Sep-19 10:07 39.655658 -106.823900 256 8122ft 148kts
10-Sep-19 10:08 39.648777 -106.869764 255 7245ft 121kts
10-Sep-19 10:09 39.643496 -106.909683 255 6550ft 88kts
10-Sep-19 10:10 39.642006 -106.915804 151 6550ft 8kts
10-Sep-19 10:11 39.641737 -106.909069 146 6550ft 14kts
10-Sep-19 10:12 39.641453 -106.908757 83 6550ft 0kts
10-Sep-19 10:13 39.641453 -106.908757 83 6550ft 0kts
10-Sep-19 10:14 39.641453 -106.908757 83 6550ft 0kts
10-Sep-19 10:15 39.641453 -106.908757 83 6550ft 0kts
10-Sep-19 10:16 39.641453 -106.908757 83 6550ft 0kts
10-Sep-19 10:17 39.641453 -106.908757 83 6550ft 0kts
10-Sep-19 10:18 39.641453 -106.908757 83 6550ft 0kts
10-Sep-19 10:19 39.641453 -106.908757 83 6550ft 0kts
10-Sep-19 10:20 39.641453 -106.908757 83 6550ft 0kts
10-Sep-19 10:21 39.641453 -106.908757 83 6550ft 0kts
10-Sep-19 10:22 39.641453 -106.908757 83 6550ft 0kts
10-Sep-19 10:23 39.641453 -106.908757 83 6550ft 0kts
10-Sep-19 10:24 39.641453 -106.908757 83 6550ft 0kts

Navigation Log

Ident Type
Flight plan parsing failed, navigation log unavailable